sensor_id;sensor_type;location;lat;lon;timestamp;pressure;altitude;pressure_sealevel;temperature;humidity
44872;BME280;30602;51.060;17.226;2022-08-20T00:01:01;101021.48;;;21.00;97.62
44872;BME280;30602;51.060;17.226;2022-08-20T00:04:46;101028.23;;;20.99;97.47
44872;BME280;30602;51.060;17.226;2022-08-20T00:07:53;101027.15;;;20.97;97.26
44872;BME280;30602;51.060;17.226;2022-08-20T00:11:34;101031.94;;;20.96;97.08
44872;BME280;30602;51.060;17.226;2022-08-20T00:15:11;101026.46;;;20.88;96.16
44872;BME280;30602;51.060;17.226;2022-08-20T00:18:30;101027.64;;;20.79;95.59
44872;BME280;30602;51.060;17.226;2022-08-20T00:22:08;101026.62;;;20.77;95.64
44872;BME280;30602;51.060;17.226;2022-08-20T00:25:36;101032.96;;;20.80;95.52
44872;BME280;30602;51.060;17.226;2022-08-20T00:28:57;101045.73;;;20.95;94.53
44872;BME280;30602;51.060;17.226;2022-08-20T00:32:28;101037.95;;;20.86;93.74
44872;BME280;30602;51.060;17.226;2022-08-20T00:36:08;101055.63;;;20.85;94.44
44872;BME280;30602;51.060;17.226;2022-08-20T00:39:35;101047.83;;;20.76;95.70
44872;BME280;30602;51.060;17.226;2022-08-20T00:47:23;101047.75;;;20.60;96.00
44872;BME280;30602;51.060;17.226;2022-08-20T00:51:04;101055.48;;;20.54;95.18
44872;BME280;30602;51.060;17.226;2022-08-20T00:58:33;101057.69;;;20.58;96.60
44872;BME280;30602;51.060;17.226;2022-08-20T01:01:46;101064.51;;;20.51;96.79
44872;BME280;30602;51.060;17.226;2022-08-20T01:04:58;101085.01;;;20.49;96.90
44872;BME280;30602;51.060;17.226;2022-08-20T01:08:08;101095.09;;;20.54;96.96
44872;BME280;30602;51.060;17.226;2022-08-20T01:11:58;101095.79;;;20.63;96.12
44872;BME280;30602;51.060;17.226;2022-08-20T01:15:30;101082.32;;;20.49;95.77
44872;BME280;30602;51.060;17.226;2022-08-20T01:18:59;101083.51;;;20.53;96.29
44872;BME280;30602;51.060;17.226;2022-08-20T01:26:24;101061.65;;;20.51;96.42
44872;BME280;30602;51.060;17.226;2022-08-20T01:30:15;101054.20;;;20.52;96.59
44872;BME280;30602;51.060;17.226;2022-08-20T01:33:44;101046.62;;;20.43;96.93
44872;BME280;30602;51.060;17.226;2022-08-20T01:37:26;101039.63;;;20.40;97.64
44872;BME280;30602;51.060;17.226;2022-08-20T01:47:50;101029.18;;;20.41;97.41
44872;BME280;30602;51.060;17.226;2022-08-20T01:51:29;101035.23;;;20.39;97.92
44872;BME280;30602;51.060;17.226;2022-08-20T01:55:00;101036.30;;;20.39;97.94
44872;BME280;30602;51.060;17.226;2022-08-20T01:58:11;101035.47;;;20.36;98.24
44872;BME280;30602;51.060;17.226;2022-08-20T02:01:55;101041.88;;;20.32;98.39
44872;BME280;30602;51.060;17.226;2022-08-20T02:05:18;101039.98;;;20.29;98.68
44872;BME280;30602;51.060;17.226;2022-08-20T02:08:33;101039.22;;;20.32;98.50
44872;BME280;30602;51.060;17.226;2022-08-20T02:11:43;101047.63;;;20.30;98.57
44872;BME280;30602;51.060;17.226;2022-08-20T02:15:51;101034.96;;;20.21;98.71
44872;BME280;30602;51.060;17.226;2022-08-20T02:23:23;101037.46;;;20.08;97.62
44872;BME280;30602;51.060;17.226;2022-08-20T02:26:44;101033.95;;;20.01;96.80
44872;BME280;30602;51.060;17.226;2022-08-20T02:29:53;101020.26;;;20.00;97.64
44872;BME280;30602;51.060;17.226;2022-08-20T02:33:14;101005.66;;;20.12;97.87
44872;BME280;30602;51.060;17.226;2022-08-20T02:36:34;100995.93;;;20.13;98.02
44872;BME280;30602;51.060;17.226;2022-08-20T02:40:19;100991.74;;;20.20;98.21
44872;BME280;30602;51.060;17.226;2022-08-20T02:43:44;100987.41;;;20.28;97.97
44872;BME280;30602;51.060;17.226;2022-08-20T02:47:27;100991.51;;;20.22;98.37
44872;BME280;30602;51.060;17.226;2022-08-20T02:51:01;100983.37;;;20.17;98.97
44872;BME280;30602;51.060;17.226;2022-08-20T02:54:11;100969.95;;;20.14;98.68
44872;BME280;30602;51.060;17.226;2022-08-20T02:58:11;100981.48;;;20.24;98.61
44872;BME280;30602;51.060;17.226;2022-08-20T03:01:41;100974.14;;;20.25;98.55
44872;BME280;30602;51.060;17.226;2022-08-20T03:04:48;100963.65;;;20.23;98.84
44872;BME280;30602;51.060;17.226;2022-08-20T03:08:30;100963.27;;;20.19;98.69
44872;BME280;30602;51.060;17.226;2022-08-20T03:12:00;100976.73;;;20.07;99.26
44872;BME280;30602;51.060;17.226;2022-08-20T03:15:34;100989.34;;;20.08;99.90
44872;BME280;30602;51.060;17.226;2022-08-20T03:18:53;101005.70;;;20.11;99.95
44872;BME280;30602;51.060;17.226;2022-08-20T03:22:03;101024.41;;;20.16;100.00
44872;BME280;30602;51.060;17.226;2022-08-20T03:25:26;101034.91;;;20.20;99.62
44872;BME280;30602;51.060;17.226;2022-08-20T03:29:18;101046.59;;;20.20;99.55
44872;BME280;30602;51.060;17.226;2022-08-20T03:32:31;101057.33;;;20.16;100.00
44872;BME280;30602;51.060;17.226;2022-08-20T03:36:00;101049.03;;;20.12;100.00
44872;BME280;30602;51.060;17.226;2022-08-20T03:39:08;101034.46;;;20.10;100.00
44872;BME280;30602;51.060;17.226;2022-08-20T03:42:30;101022.33;;;20.08;100.00
44872;BME280;30602;51.060;17.226;2022-08-20T03:45:46;101010.33;;;20.33;98.43
44872;BME280;30602;51.060;17.226;2022-08-20T03:48:54;101012.99;;;20.22;98.87
44872;BME280;30602;51.060;17.226;2022-08-20T03:52:04;101013.39;;;20.16;99.70
44872;BME280;30602;51.060;17.226;2022-08-20T03:55:31;101024.24;;;20.10;99.87
44872;BME280;30602;51.060;17.226;2022-08-20T03:58:55;101022.45;;;20.11;100.00
44872;BME280;30602;51.060;17.226;2022-08-20T04:02:46;101026.90;;;20.07;100.00
44872;BME280;30602;51.060;17.226;2022-08-20T04:06:44;101021.85;;;20.06;100.00
44872;BME280;30602;51.060;17.226;2022-08-20T04:10:11;101028.30;;;20.10;100.00
44872;BME280;30602;51.060;17.226;2022-08-20T04:13:57;101035.00;;;20.12;100.00
44872;BME280;30602;51.060;17.226;2022-08-20T04:17:09;101041.88;;;20.13;100.00
44872;BME280;30602;51.060;17.226;2022-08-20T04:20:23;101045.71;;;20.07;100.00
44872;BME280;30602;51.060;17.226;2022-08-20T04:24:21;101048.57;;;20.02;99.99
44872;BME280;30602;51.060;17.226;2022-08-20T04:28:30;101055.96;;;20.01;100.00
44872;BME280;30602;51.060;17.226;2022-08-20T04:31:42;101055.23;;;20.02;100.00
44872;BME280;30602;51.060;17.226;2022-08-20T04:36:10;101060.98;;;20.04;100.00
44872;BME280;30602;51.060;17.226;2022-08-20T04:39:42;101042.79;;;20.11;100.00
44872;BME280;30602;51.060;17.226;2022-08-20T04:42:53;101043.94;;;20.16;100.00
44872;BME280;30602;51.060;17.226;2022-08-20T04:46:16;101058.07;;;20.19;100.00
44872;BME280;30602;51.060;17.226;2022-08-20T04:49:26;101069.25;;;20.20;99.98
44872;BME280;30602;51.060;17.226;2022-08-20T04:52:35;101069.61;;;20.16;100.00
44872;BME280;30602;51.060;17.226;2022-08-20T04:55:45;101057.52;;;20.17;100.00
44872;BME280;30602;51.060;17.226;2022-08-20T04:58:56;101043.10;;;20.19;100.00
44872;BME280;30602;51.060;17.226;2022-08-20T05:02:37;101047.16;;;20.24;100.00
44872;BME280;30602;51.060;17.226;2022-08-20T05:05:50;101050.77;;;20.25;100.00
44872;BME280;30602;51.060;17.226;2022-08-20T05:09:16;101063.84;;;20.27;100.00
44872;BME280;30602;51.060;17.226;2022-08-20T05:13:07;101055.00;;;20.19;100.00
44872;BME280;30602;51.060;17.226;2022-08-20T05:16:56;101055.25;;;20.19;100.00
44872;BME280;30602;51.060;17.226;2022-08-20T05:20:09;101055.86;;;20.34;100.00
44872;BME280;30602;51.060;17.226;2022-08-20T05:23:19;101053.99;;;20.36;100.00
44872;BME280;30602;51.060;17.226;2022-08-20T05:27:12;101049.14;;;20.38;100.00
44872;BME280;30602;51.060;17.226;2022-08-20T05:30:44;101049.91;;;20.50;100.00
44872;BME280;30602;51.060;17.226;2022-08-20T05:34:12;101044.79;;;20.52;100.00
44872;BME280;30602;51.060;17.226;2022-08-20T05:37:45;101043.63;;;20.47;100.00
44872;BME280;30602;51.060;17.226;2022-08-20T05:40:54;101044.48;;;20.50;100.00
44872;BME280;30602;51.060;17.226;2022-08-20T05:44:08;101043.31;;;20.70;100.00
44872;BME280;30602;51.060;17.226;2022-08-20T05:48:13;101036.38;;;20.77;100.00
44872;BME280;30602;51.060;17.226;2022-08-20T05:51:43;101042.71;;;21.04;100.00
44872;BME280;30602;51.060;17.226;2022-08-20T05:54:50;101040.18;;;21.10;99.90
44872;BME280;30602;51.060;17.226;2022-08-20T06:02:15;101043.87;;;21.19;98.20
44872;BME280;30602;51.060;17.226;2022-08-20T06:05:33;101036.30;;;21.20;97.49
44872;BME280;30602;51.060;17.226;2022-08-20T06:08:56;101036.27;;;21.17;98.17
44872;BME280;30602;51.060;17.226;2022-08-20T06:12:37;101046.42;;;21.30;98.18
44872;BME280;30602;51.060;17.226;2022-08-20T06:16:30;101049.34;;;21.46;97.76
44872;BME280;30602;51.060;17.226;2022-08-20T06:19:40;101055.41;;;21.65;96.37
44872;BME280;30602;51.060;17.226;2022-08-20T06:22:52;101054.45;;;21.80;94.74
44872;BME280;30602;51.060;17.226;2022-08-20T06:26:27;101058.16;;;21.91;93.82
44872;BME280;30602;51.060;17.226;2022-08-20T06:29:41;101056.02;;;21.99;93.51
44872;BME280;30602;51.060;17.226;2022-08-20T06:33:17;101056.53;;;21.94;93.26
44872;BME280;30602;51.060;17.226;2022-08-20T06:36:50;101053.94;;;21.85;92.50
44872;BME280;30602;51.060;17.226;2022-08-20T06:40:06;101050.01;;;21.98;93.90
44872;BME280;30602;51.060;17.226;2022-08-20T06:43:47;101058.68;;;22.04;91.86
44872;BME280;30602;51.060;17.226;2022-08-20T06:47:02;101064.73;;;21.97;91.36
44872;BME280;30602;51.060;17.226;2022-08-20T06:50:22;101068.35;;;21.99;91.33
44872;BME280;30602;51.060;17.226;2022-08-20T06:54:13;101067.00;;;22.01;90.23
44872;BME280;30602;51.060;17.226;2022-08-20T06:57:22;101053.46;;;21.86;90.15
44872;BME280;30602;51.060;17.226;2022-08-20T07:00:55;101060.50;;;21.89;90.32
44872;BME280;30602;51.060;17.226;2022-08-20T07:04:53;101062.23;;;21.98;90.36
44872;BME280;30602;51.060;17.226;2022-08-20T07:08:17;101062.29;;;22.08;89.83
44872;BME280;30602;51.060;17.226;2022-08-20T07:11:59;101060.63;;;22.16;89.68
44872;BME280;30602;51.060;17.226;2022-08-20T07:15:25;101068.56;;;22.11;89.41
44872;BME280;30602;51.060;17.226;2022-08-20T07:18:40;101070.74;;;22.06;89.48
44872;BME280;30602;51.060;17.226;2022-08-20T07:21:53;101066.95;;;22.10;89.58
44872;BME280;30602;51.060;17.226;2022-08-20T07:25:30;101065.10;;;22.20;88.96
44872;BME280;30602;51.060;17.226;2022-08-20T07:28:49;101065.12;;;22.14;88.23
44872;BME280;30602;51.060;17.226;2022-08-20T07:36:22;101067.44;;;22.20;88.61
44872;BME280;30602;51.060;17.226;2022-08-20T07:39:56;101072.48;;;22.33;88.33
44872;BME280;30602;51.060;17.226;2022-08-20T07:43:05;101077.06;;;22.39;87.98
44872;BME280;30602;51.060;17.226;2022-08-20T07:46:20;101070.02;;;22.43;86.99
44872;BME280;30602;51.060;17.226;2022-08-20T07:49:54;101074.89;;;22.51;86.96
44872;BME280;30602;51.060;17.226;2022-08-20T07:53:08;101074.35;;;22.63;87.48
44872;BME280;30602;51.060;17.226;2022-08-20T07:56:52;101079.17;;;22.57;85.38
44872;BME280;30602;51.060;17.226;2022-08-20T08:00:24;101078.88;;;22.59;86.21
44872;BME280;30602;51.060;17.226;2022-08-20T08:03:36;101085.45;;;22.56;85.73
44872;BME280;30602;51.060;17.226;2022-08-20T08:07:02;101089.19;;;22.57;86.58
44872;BME280;30602;51.060;17.226;2022-08-20T08:10:50;101096.05;;;22.64;86.31
44872;BME280;30602;51.060;17.226;2022-08-20T08:14:25;101096.18;;;22.67;87.98
44872;BME280;30602;51.060;17.226;2022-08-20T08:17:44;101104.11;;;22.67;86.25
44872;BME280;30602;51.060;17.226;2022-08-20T08:21:19;101101.35;;;22.85;86.50
44872;BME280;30602;51.060;17.226;2022-08-20T08:24:37;101093.19;;;23.22;85.94
44872;BME280;30602;51.060;17.226;2022-08-20T08:28:10;101092.85;;;23.36;84.60
44872;BME280;30602;51.060;17.226;2022-08-20T08:31:40;101089.34;;;23.46;82.55
44872;BME280;30602;51.060;17.226;2022-08-20T08:35:12;101087.54;;;23.65;82.02
44872;BME280;30602;51.060;17.226;2022-08-20T08:39:00;101090.43;;;23.43;80.98
44872;BME280;30602;51.060;17.226;2022-08-20T08:45:46;101086.10;;;23.73;81.82
44872;BME280;30602;51.060;17.226;2022-08-20T08:49:00;101082.42;;;23.73;80.98
44872;BME280;30602;51.060;17.226;2022-08-20T08:52:29;101075.74;;;23.66;79.80
44872;BME280;30602;51.060;17.226;2022-08-20T08:56:00;101077.87;;;23.70;79.70
44872;BME280;30602;51.060;17.226;2022-08-20T08:59:12;101085.30;;;23.75;79.66
44872;BME280;30602;51.060;17.226;2022-08-20T09:06:15;101092.32;;;23.77;78.59
44872;BME280;30602;51.060;17.226;2022-08-20T09:10:35;101089.34;;;23.88;80.81
44872;BME280;30602;51.060;17.226;2022-08-20T09:13:48;101077.49;;;23.90;80.09
44872;BME280;30602;51.060;17.226;2022-08-20T09:17:20;101080.74;;;24.12;79.69
44872;BME280;30602;51.060;17.226;2022-08-20T09:20:37;101078.34;;;24.52;78.88
44872;BME280;30602;51.060;17.226;2022-08-20T09:24:01;101080.41;;;24.50;76.67
44872;BME280;30602;51.060;17.226;2022-08-20T09:31:20;101081.48;;;24.51;78.77
44872;BME280;30602;51.060;17.226;2022-08-20T09:34:46;101086.70;;;24.47;76.80
44872;BME280;30602;51.060;17.226;2022-08-20T09:38:29;101069.26;;;24.45;76.90
44872;BME280;30602;51.060;17.226;2022-08-20T09:42:10;101080.05;;;24.76;77.92
44872;BME280;30602;51.060;17.226;2022-08-20T09:46:23;101081.85;;;24.88;75.23
44872;BME280;30602;51.060;17.226;2022-08-20T09:49:39;101077.27;;;25.05;75.03
44872;BME280;30602;51.060;17.226;2022-08-20T09:53:12;101077.09;;;25.00;73.73
44872;BME280;30602;51.060;17.226;2022-08-20T09:56:25;101077.76;;;25.07;74.87
44872;BME280;30602;51.060;17.226;2022-08-20T09:59:39;101078.80;;;25.14;74.42
44872;BME280;30602;51.060;17.226;2022-08-20T10:03:18;101079.04;;;25.16;73.42
44872;BME280;30602;51.060;17.226;2022-08-20T10:06:45;101084.22;;;25.02;73.48
44872;BME280;30602;51.060;17.226;2022-08-20T10:10:43;101080.55;;;25.02;72.93
44872;BME280;30602;51.060;17.226;2022-08-20T10:13:56;101077.45;;;25.13;73.45
44872;BME280;30602;51.060;17.226;2022-08-20T10:17:10;101076.99;;;25.17;73.97
44872;BME280;30602;51.060;17.226;2022-08-20T10:20:27;101074.62;;;25.11;72.22
44872;BME280;30602;51.060;17.226;2022-08-20T10:23:37;101064.70;;;24.94;72.29
44872;BME280;30602;51.060;17.226;2022-08-20T10:26:56;101078.95;;;24.93;72.54
44872;BME280;30602;51.060;17.226;2022-08-20T10:30:57;101083.26;;;24.82;72.09
44872;BME280;30602;51.060;17.226;2022-08-20T10:34:44;101081.92;;;24.98;73.80
44872;BME280;30602;51.060;17.226;2022-08-20T10:37:56;101087.35;;;25.01;72.70
44872;BME280;30602;51.060;17.226;2022-08-20T10:41:30;101086.53;;;25.10;75.65
44872;BME280;30602;51.060;17.226;2022-08-20T10:45:40;101088.03;;;25.05;73.12
44872;BME280;30602;51.060;17.226;2022-08-20T10:49:11;101086.43;;;25.07;72.92
44872;BME280;30602;51.060;17.226;2022-08-20T10:52:25;101092.80;;;25.07;72.34
44872;BME280;30602;51.060;17.226;2022-08-20T10:55:53;101094.06;;;25.08;72.28
44872;BME280;30602;51.060;17.226;2022-08-20T10:59:08;101094.86;;;24.99;72.09
44872;BME280;30602;51.060;17.226;2022-08-20T11:02:26;101096.62;;;25.04;72.54
44872;BME280;30602;51.060;17.226;2022-08-20T11:05:55;101095.77;;;24.94;73.70
44872;BME280;30602;51.060;17.226;2022-08-20T11:09:19;101093.89;;;24.77;74.06
44872;BME280;30602;51.060;17.226;2022-08-20T11:12:27;101094.64;;;24.74;74.03
44872;BME280;30602;51.060;17.226;2022-08-20T11:15:56;101089.40;;;24.71;75.15
44872;BME280;30602;51.060;17.226;2022-08-20T11:19:52;101092.19;;;24.62;74.39
44872;BME280;30602;51.060;17.226;2022-08-20T11:23:18;101092.29;;;24.78;74.75
44872;BME280;30602;51.060;17.226;2022-08-20T11:26:48;101085.80;;;24.87;74.10
44872;BME280;30602;51.060;17.226;2022-08-20T11:29:58;101078.90;;;24.85;74.75
44872;BME280;30602;51.060;17.226;2022-08-20T11:33:29;101078.09;;;24.84;73.62
44872;BME280;30602;51.060;17.226;2022-08-20T11:37:02;101083.39;;;24.95;73.83
44872;BME280;30602;51.060;17.226;2022-08-20T11:40:24;101085.91;;;24.99;72.92
44872;BME280;30602;51.060;17.226;2022-08-20T11:43:39;101084.07;;;25.10;72.58
44872;BME280;30602;51.060;17.226;2022-08-20T11:46:53;101072.23;;;25.22;71.43
44872;BME280;30602;51.060;17.226;2022-08-20T11:50:20;101066.02;;;25.46;71.26
44872;BME280;30602;51.060;17.226;2022-08-20T11:53:48;101062.80;;;25.65;69.95
44872;BME280;30602;51.060;17.226;2022-08-20T11:57:27;101067.84;;;25.69;70.00
44872;BME280;30602;51.060;17.226;2022-08-20T12:01:16;101065.49;;;25.67;70.45
44872;BME280;30602;51.060;17.226;2022-08-20T12:04:27;101058.18;;;25.56;69.25
44872;BME280;30602;51.060;17.226;2022-08-20T12:07:37;101055.24;;;25.61;69.35
44872;BME280;30602;51.060;17.226;2022-08-20T12:10:47;101059.61;;;25.73;68.32
44872;BME280;30602;51.060;17.226;2022-08-20T12:14:17;101046.44;;;25.90;68.79
44872;BME280;30602;51.060;17.226;2022-08-20T12:18:20;101042.95;;;26.05;67.75
44872;BME280;30602;51.060;17.226;2022-08-20T12:21:32;101042.43;;;26.25;68.10
44872;BME280;30602;51.060;17.226;2022-08-20T12:25:02;101047.19;;;26.26;67.30
44872;BME280;30602;51.060;17.226;2022-08-20T12:28:44;101042.38;;;26.25;66.97
44872;BME280;30602;51.060;17.226;2022-08-20T12:31:57;101041.57;;;26.28;67.09
44872;BME280;30602;51.060;17.226;2022-08-20T12:35:26;101034.07;;;26.29;66.63
44872;BME280;30602;51.060;17.226;2022-08-20T12:39:04;101036.02;;;26.44;65.77
44872;BME280;30602;51.060;17.226;2022-08-20T12:42:18;101035.07;;;26.33;66.28
44872;BME280;30602;51.060;17.226;2022-08-20T12:45:30;101030.78;;;26.39;65.63
44872;BME280;30602;51.060;17.226;2022-08-20T12:48:49;101019.96;;;26.35;64.87
44872;BME280;30602;51.060;17.226;2022-08-20T12:52:11;101018.20;;;26.32;65.27
44872;BME280;30602;51.060;17.226;2022-08-20T12:55:36;101017.21;;;26.30;64.92
44872;BME280;30602;51.060;17.226;2022-08-20T12:58:46;101009.54;;;26.42;65.18
44872;BME280;30602;51.060;17.226;2022-08-20T13:01:54;101009.24;;;26.45;64.19
44872;BME280;30602;51.060;17.226;2022-08-20T13:05:37;101001.45;;;26.56;63.83
44872;BME280;30602;51.060;17.226;2022-08-20T13:09:05;100995.10;;;26.54;63.28
44872;BME280;30602;51.060;17.226;2022-08-20T13:12:17;100989.24;;;26.54;64.34
44872;BME280;30602;51.060;17.226;2022-08-20T13:15:38;100998.02;;;26.55;63.11
44872;BME280;30602;51.060;17.226;2022-08-20T13:18:45;100998.87;;;26.38;62.23
44872;BME280;30602;51.060;17.226;2022-08-20T13:21:53;101003.24;;;26.37;63.12
44872;BME280;30602;51.060;17.226;2022-08-20T13:25:07;101001.83;;;26.38;62.76
44872;BME280;30602;51.060;17.226;2022-08-20T13:28:42;100997.82;;;26.55;62.63
44872;BME280;30602;51.060;17.226;2022-08-20T13:32:19;100994.38;;;26.52;63.15
44872;BME280;30602;51.060;17.226;2022-08-20T13:36:04;100989.12;;;26.55;61.81
44872;BME280;30602;51.060;17.226;2022-08-20T13:39:38;100986.43;;;26.49;63.35
44872;BME280;30602;51.060;17.226;2022-08-20T13:42:48;100975.89;;;26.60;62.02
44872;BME280;30602;51.060;17.226;2022-08-20T13:46:38;100976.27;;;26.59;62.05
44872;BME280;30602;51.060;17.226;2022-08-20T13:53:09;100989.87;;;26.32;61.92
44872;BME280;30602;51.060;17.226;2022-08-20T13:56:22;100982.95;;;26.34;63.64
44872;BME280;30602;51.060;17.226;2022-08-20T13:59:56;100987.82;;;26.39;62.93
44872;BME280;30602;51.060;17.226;2022-08-20T14:03:05;100984.59;;;26.50;63.17
44872;BME280;30602;51.060;17.226;2022-08-20T14:06:32;100982.84;;;26.43;62.87
44872;BME280;30602;51.060;17.226;2022-08-20T14:10:11;100981.39;;;26.46;62.30
44872;BME280;30602;51.060;17.226;2022-08-20T14:13:23;100991.65;;;26.56;61.88
44872;BME280;30602;51.060;17.226;2022-08-20T14:16:38;100998.25;;;26.49;63.10
44872;BME280;30602;51.060;17.226;2022-08-20T14:20:17;101003.59;;;26.48;64.71
44872;BME280;30602;51.060;17.226;2022-08-20T14:23:35;101005.78;;;26.41;63.33
44872;BME280;30602;51.060;17.226;2022-08-20T14:27:05;101003.98;;;26.33;63.32
44872;BME280;30602;51.060;17.226;2022-08-20T14:30:17;100998.08;;;26.26;62.14
44872;BME280;30602;51.060;17.226;2022-08-20T14:33:25;101004.51;;;26.18;65.82
44872;BME280;30602;51.060;17.226;2022-08-20T14:36:34;101010.98;;;26.03;65.93
44872;BME280;30602;51.060;17.226;2022-08-20T14:39:48;101020.48;;;25.90;66.28
44872;BME280;30602;51.060;17.226;2022-08-20T14:43:01;101024.28;;;25.85;65.48
44872;BME280;30602;51.060;17.226;2022-08-20T14:46:29;101024.46;;;25.89;65.10
44872;BME280;30602;51.060;17.226;2022-08-20T14:50:04;101022.12;;;25.92;63.72
44872;BME280;30602;51.060;17.226;2022-08-20T14:53:19;101018.30;;;25.95;64.91
44872;BME280;30602;51.060;17.226;2022-08-20T14:56:52;101016.33;;;25.79;65.38
44872;BME280;30602;51.060;17.226;2022-08-20T15:00:00;101021.38;;;25.77;68.10
44872;BME280;30602;51.060;17.226;2022-08-20T15:04:07;101028.83;;;25.65;68.87
44872;BME280;30602;51.060;17.226;2022-08-20T15:07:48;101036.48;;;25.47;69.81
44872;BME280;30602;51.060;17.226;2022-08-20T15:14:59;101060.90;;;25.25;68.61
44872;BME280;30602;51.060;17.226;2022-08-20T15:18:40;101063.57;;;25.11;67.86
44872;BME280;30602;51.060;17.226;2022-08-20T15:22:10;101053.03;;;24.82;66.01
44872;BME280;30602;51.060;17.226;2022-08-20T15:25:21;101049.34;;;24.64;66.03
44872;BME280;30602;51.060;17.226;2022-08-20T15:29:02;101061.75;;;24.49;67.47
44872;BME280;30602;51.060;17.226;2022-08-20T15:32:32;101066.96;;;24.10;72.84
44872;BME280;30602;51.060;17.226;2022-08-20T15:36:04;101069.66;;;23.78;75.51
44872;BME280;30602;51.060;17.226;2022-08-20T15:39:15;101072.23;;;23.49;79.19
44872;BME280;30602;51.060;17.226;2022-08-20T15:42:44;101072.24;;;23.55;80.59
44872;BME280;30602;51.060;17.226;2022-08-20T15:46:38;101072.04;;;23.48;81.35
44872;BME280;30602;51.060;17.226;2022-08-20T15:54:10;101074.98;;;22.98;84.57
44872;BME280;30602;51.060;17.226;2022-08-20T16:01:36;101096.21;;;22.78;87.17
44872;BME280;30602;51.060;17.226;2022-08-20T16:12:36;101101.51;;;22.33;87.61
44872;BME280;30602;51.060;17.226;2022-08-20T16:15:51;101094.05;;;22.19;88.42
44872;BME280;30602;51.060;17.226;2022-08-20T16:19:25;101087.13;;;21.99;89.68
44872;BME280;30602;51.060;17.226;2022-08-20T16:22:57;101092.58;;;21.96;89.73
44872;BME280;30602;51.060;17.226;2022-08-20T16:33:56;101108.55;;;21.73;90.58
44872;BME280;30602;51.060;17.226;2022-08-20T16:44:43;101130.14;;;21.22;93.84
44872;BME280;30602;51.060;17.226;2022-08-20T16:48:15;101131.79;;;21.08;94.60
44872;BME280;30602;51.060;17.226;2022-08-20T16:51:49;101137.38;;;21.19;94.33
44872;BME280;30602;51.060;17.226;2022-08-20T16:55:29;101130.77;;;21.24;93.84
44872;BME280;30602;51.060;17.226;2022-08-20T16:58:38;101134.24;;;21.22;93.75
44872;BME280;30602;51.060;17.226;2022-08-20T17:02:05;101149.20;;;21.11;94.97
44872;BME280;30602;51.060;17.226;2022-08-20T17:05:48;101174.83;;;21.20;96.72
44872;BME280;30602;51.060;17.226;2022-08-20T17:09:30;101165.90;;;21.23;97.52
44872;BME280;30602;51.060;17.226;2022-08-20T17:16:44;101152.70;;;21.22;97.50
44872;BME280;30602;51.060;17.226;2022-08-20T17:20:19;101149.68;;;21.44;96.35
44872;BME280;30602;51.060;17.226;2022-08-20T17:23:34;101153.70;;;21.58;95.00
44872;BME280;30602;51.060;17.226;2022-08-20T17:26:59;101157.41;;;21.52;95.31
44872;BME280;30602;51.060;17.226;2022-08-20T17:34:22;101163.71;;;21.22;96.89
44872;BME280;30602;51.060;17.226;2022-08-20T17:37:54;101168.62;;;21.21;97.85
44872;BME280;30602;51.060;17.226;2022-08-20T17:41:35;101167.05;;;21.19;97.92
44872;BME280;30602;51.060;17.226;2022-08-20T17:45:21;101167.14;;;21.16;98.00
44872;BME280;30602;51.060;17.226;2022-08-20T17:48:51;101176.96;;;21.16;98.50
44872;BME280;30602;51.060;17.226;2022-08-20T17:52:04;101185.45;;;21.04;99.27
44872;BME280;30602;51.060;17.226;2022-08-20T17:55:13;101182.15;;;21.07;99.32
44872;BME280;30602;51.060;17.226;2022-08-20T17:58:50;101184.01;;;20.99;99.82
44872;BME280;30602;51.060;17.226;2022-08-20T18:02:00;101185.92;;;21.06;99.67
44872;BME280;30602;51.060;17.226;2022-08-20T18:05:17;101175.80;;;21.28;98.82
44872;BME280;30602;51.060;17.226;2022-08-20T18:08:36;101175.78;;;21.27;98.26
44872;BME280;30602;51.060;17.226;2022-08-20T18:11:54;101167.55;;;21.33;97.16
44872;BME280;30602;51.060;17.226;2022-08-20T18:15:36;101176.93;;;21.23;97.70
44872;BME280;30602;51.060;17.226;2022-08-20T18:22:32;101195.38;;;21.12;98.13
44872;BME280;30602;51.060;17.226;2022-08-20T18:25:48;101206.27;;;21.03;98.93
44872;BME280;30602;51.060;17.226;2022-08-20T18:29:33;101215.37;;;20.97;99.67
44872;BME280;30602;51.060;17.226;2022-08-20T18:33:08;101213.07;;;20.96;99.92
44872;BME280;30602;51.060;17.226;2022-08-20T18:36:25;101209.84;;;20.94;99.78
44872;BME280;30602;51.060;17.226;2022-08-20T18:39:47;101211.42;;;20.86;99.45
44872;BME280;30602;51.060;17.226;2022-08-20T18:43:14;101210.23;;;20.96;98.41
44872;BME280;30602;51.060;17.226;2022-08-20T18:46:23;101208.23;;;20.92;98.21
44872;BME280;30602;51.060;17.226;2022-08-20T18:49:37;101205.84;;;20.86;98.60
44872;BME280;30602;51.060;17.226;2022-08-20T18:53:16;101207.38;;;20.89;98.40
44872;BME280;30602;51.060;17.226;2022-08-20T18:57:06;101212.19;;;20.82;98.29
44872;BME280;30602;51.060;17.226;2022-08-20T19:00:18;101211.84;;;20.80;98.17
44872;BME280;30602;51.060;17.226;2022-08-20T19:03:58;101219.30;;;20.65;99.34
44872;BME280;30602;51.060;17.226;2022-08-20T19:07:26;101221.67;;;20.62;99.97
44872;BME280;30602;51.060;17.226;2022-08-20T19:14:30;101218.45;;;20.48;99.99
44872;BME280;30602;51.060;17.226;2022-08-20T19:18:08;101215.41;;;20.37;100.00
44872;BME280;30602;51.060;17.226;2022-08-20T19:21:25;101216.62;;;20.34;100.00